Flight Briefing for CPX248

Departure Arrival
Theodore Francis Green State Airport (KPVD)
Click to view FAA NOTAMS
Miami International Airport (KMIA)
Click to view FAA NOTAMS
Departure Time Arrival Time
N/A N/A
Aircraft Distance
B767-300BDSF 1351nm
Departure METAR Arrival METAR
KPVD 212251Z 32015G28KT 10SM FEW060 BKN250 19/01 A2987 RMK AO2 PK WND 31028/2245 SLP115 T01890011 KMIA 212253Z 12012KT 10SM FEW040 FEW060 FEW250 29/20 A2993 RMK AO2 SLP136 T02890200
Suggested Route
JUMPR RIFLE J174 SWL CEBEE WETRO DIW AR22 JORAY HILEY7


View recent IFR Routes data
Notes



Charts and Procedures

Charts for KPVD
No chart available
Charts for KMIA
No chart available

Windy.com Weather Map